sensor_id;sensor_type;location;lat;lon;timestamp;temperature;humidity
46283;DHT22;32017;43.700;11.820;2023-08-06T00:01:57;13.70;99.90
46283;DHT22;32017;43.700;11.820;2023-08-06T00:04:17;13.60;99.90
46283;DHT22;32017;43.700;11.820;2023-08-06T00:06:37;13.60;99.90
46283;DHT22;32017;43.700;11.820;2023-08-06T00:08:57;13.50;99.90
46283;DHT22;32017;43.700;11.820;2023-08-06T00:11:18;13.50;99.90
46283;DHT22;32017;43.700;11.820;2023-08-06T00:13:38;13.50;99.90
46283;DHT22;32017;43.700;11.820;2023-08-06T00:16:09;13.40;99.90
46283;DHT22;32017;43.700;11.820;2023-08-06T00:18:29;13.40;99.90
46283;DHT22;32017;43.700;11.820;2023-08-06T00:20:48;13.50;99.90
46283;DHT22;32017;43.700;11.820;2023-08-06T00:23:08;13.60;99.90
46283;DHT22;32017;43.700;11.820;2023-08-06T00:25:28;13.50;99.90
46283;DHT22;32017;43.700;11.820;2023-08-06T00:27:48;13.40;99.90
46283;DHT22;32017;43.700;11.820;2023-08-06T00:30:08;13.50;99.90
46283;DHT22;32017;43.700;11.820;2023-08-06T00:32:28;13.50;99.90
46283;DHT22;32017;43.700;11.820;2023-08-06T00:34:47;13.50;99.90
46283;DHT22;32017;43.700;11.820;2023-08-06T00:37:09;13.50;99.90
46283;DHT22;32017;43.700;11.820;2023-08-06T00:39:29;13.50;99.90
46283;DHT22;32017;43.700;11.820;2023-08-06T00:41:49;13.50;99.90
46283;DHT22;32017;43.700;11.820;2023-08-06T00:44:09;13.20;99.90
46283;DHT22;32017;43.700;11.820;2023-08-06T00:46:30;13.20;99.90
46283;DHT22;32017;43.700;11.820;2023-08-06T00:48:51;13.10;99.90
46283;DHT22;32017;43.700;11.820;2023-08-06T00:51:11;12.90;99.90
46283;DHT22;32017;43.700;11.820;2023-08-06T00:53:31;12.80;99.90
46283;DHT22;32017;43.700;11.820;2023-08-06T00:55:52;12.70;99.90
46283;DHT22;32017;43.700;11.820;2023-08-06T00:58:13;12.70;99.90
46283;DHT22;32017;43.700;11.820;2023-08-06T01:00:33;12.70;99.90
46283;DHT22;32017;43.700;11.820;2023-08-06T01:02:53;12.70;99.90
46283;DHT22;32017;43.700;11.820;2023-08-06T01:05:14;12.70;99.90
46283;DHT22;32017;43.700;11.820;2023-08-06T01:08:12;12.80;99.90
46283;DHT22;32017;43.700;11.820;2023-08-06T01:13:45;12.80;99.90
46283;DHT22;32017;43.700;11.820;2023-08-06T01:16:06;12.80;99.90
46283;DHT22;32017;43.700;11.820;2023-08-06T01:18:27;12.80;99.90
46283;DHT22;32017;43.700;11.820;2023-08-06T01:20:47;12.90;99.90
46283;DHT22;32017;43.700;11.820;2023-08-06T01:23:09;13.00;99.90
46283;DHT22;32017;43.700;11.820;2023-08-06T01:25:59;13.10;99.90
46283;DHT22;32017;43.700;11.820;2023-08-06T01:30:54;13.00;99.90
46283;DHT22;32017;43.700;11.820;2023-08-06T01:33:18;13.00;99.90
46283;DHT22;32017;43.700;11.820;2023-08-06T01:35:39;13.10;99.90
46283;DHT22;32017;43.700;11.820;2023-08-06T01:38:02;13.20;99.90
46283;DHT22;32017;43.700;11.820;2023-08-06T01:40:23;13.10;99.90
46283;DHT22;32017;43.700;11.820;2023-08-06T01:42:43;13.10;99.90
46283;DHT22;32017;43.700;11.820;2023-08-06T01:45:03;13.10;99.90
46283;DHT22;32017;43.700;11.820;2023-08-06T01:47:23;12.80;99.90
46283;DHT22;32017;43.700;11.820;2023-08-06T01:49:42;12.80;99.90
46283;DHT22;32017;43.700;11.820;2023-08-06T01:52:03;12.80;99.90
46283;DHT22;32017;43.700;11.820;2023-08-06T01:54:23;12.70;99.90
46283;DHT22;32017;43.700;11.820;2023-08-06T01:56:43;12.70;99.90
46283;DHT22;32017;43.700;11.820;2023-08-06T01:59:03;12.60;99.90
46283;DHT22;32017;43.700;11.820;2023-08-06T02:01:24;12.60;99.90
46283;DHT22;32017;43.700;11.820;2023-08-06T02:03:45;12.60;99.90
46283;DHT22;32017;43.700;11.820;2023-08-06T02:06:05;12.60;99.90
46283;DHT22;32017;43.700;11.820;2023-08-06T02:08:25;12.60;99.90
46283;DHT22;32017;43.700;11.820;2023-08-06T02:10:45;12.50;99.90
46283;DHT22;32017;43.700;11.820;2023-08-06T02:13:05;12.60;99.90
46283;DHT22;32017;43.700;11.820;2023-08-06T02:15:25;12.60;99.90
46283;DHT22;32017;43.700;11.820;2023-08-06T02:17:45;12.70;99.90
46283;DHT22;32017;43.700;11.820;2023-08-06T02:20:05;12.60;99.90
46283;DHT22;32017;43.700;11.820;2023-08-06T02:22:25;12.60;99.90
46283;DHT22;32017;43.700;11.820;2023-08-06T02:24:45;12.60;99.90
46283;DHT22;32017;43.700;11.820;2023-08-06T02:27:05;12.60;99.90
46283;DHT22;32017;43.700;11.820;2023-08-06T02:29:25;12.70;99.90
46283;DHT22;32017;43.700;11.820;2023-08-06T02:31:45;12.60;99.90
46283;DHT22;32017;43.700;11.820;2023-08-06T02:34:05;12.60;99.90
46283;DHT22;32017;43.700;11.820;2023-08-06T02:36:24;12.50;99.90
46283;DHT22;32017;43.700;11.820;2023-08-06T02:38:48;12.60;99.90
46283;DHT22;32017;43.700;11.820;2023-08-06T02:41:08;12.70;99.90
46283;DHT22;32017;43.700;11.820;2023-08-06T02:43:28;12.80;99.90
46283;DHT22;32017;43.700;11.820;2023-08-06T02:45:48;12.80;99.90
46283;DHT22;32017;43.700;11.820;2023-08-06T02:48:08;12.70;99.90
46283;DHT22;32017;43.700;11.820;2023-08-06T02:50:28;12.80;99.90
46283;DHT22;32017;43.700;11.820;2023-08-06T02:52:49;12.80;99.90
46283;DHT22;32017;43.700;11.820;2023-08-06T02:55:09;12.90;99.90
46283;DHT22;32017;43.700;11.820;2023-08-06T02:57:29;12.90;99.90
46283;DHT22;32017;43.700;11.820;2023-08-06T02:59:49;13.00;99.90
46283;DHT22;32017;43.700;11.820;2023-08-06T03:02:09;12.90;99.90
46283;DHT22;32017;43.700;11.820;2023-08-06T03:04:29;12.80;99.90
46283;DHT22;32017;43.700;11.820;2023-08-06T03:06:50;12.80;99.90
46283;DHT22;32017;43.700;11.820;2023-08-06T03:09:10;12.70;99.90
46283;DHT22;32017;43.700;11.820;2023-08-06T03:11:30;12.70;99.90
46283;DHT22;32017;43.700;11.820;2023-08-06T03:13:51;12.60;99.90
46283;DHT22;32017;43.700;11.820;2023-08-06T03:16:10;12.50;99.90
46283;DHT22;32017;43.700;11.820;2023-08-06T03:18:30;12.60;99.90
46283;DHT22;32017;43.700;11.820;2023-08-06T03:20:50;12.60;99.90
46283;DHT22;32017;43.700;11.820;2023-08-06T03:23:10;12.60;99.90
46283;DHT22;32017;43.700;11.820;2023-08-06T03:25:30;12.70;99.90
46283;DHT22;32017;43.700;11.820;2023-08-06T03:27:50;12.60;99.90
46283;DHT22;32017;43.700;11.820;2023-08-06T03:30:10;12.70;99.90
46283;DHT22;32017;43.700;11.820;2023-08-06T03:32:30;12.70;99.90
46283;DHT22;32017;43.700;11.820;2023-08-06T03:34:50;12.60;99.90
46283;DHT22;32017;43.700;11.820;2023-08-06T03:37:11;12.60;99.90
46283;DHT22;32017;43.700;11.820;2023-08-06T03:39:31;12.70;99.90
46283;DHT22;32017;43.700;11.820;2023-08-06T03:41:51;12.60;99.90
46283;DHT22;32017;43.700;11.820;2023-08-06T03:44:11;12.60;99.90
46283;DHT22;32017;43.700;11.820;2023-08-06T03:46:31;12.60;99.90
46283;DHT22;32017;43.700;11.820;2023-08-06T03:48:54;12.60;99.90
46283;DHT22;32017;43.700;11.820;2023-08-06T03:51:14;12.60;99.90
46283;DHT22;32017;43.700;11.820;2023-08-06T03:53:33;12.60;99.90
46283;DHT22;32017;43.700;11.820;2023-08-06T03:55:53;12.60;99.90
46283;DHT22;32017;43.700;11.820;2023-08-06T03:58:15;12.60;99.90
46283;DHT22;32017;43.700;11.820;2023-08-06T04:00:35;12.60;99.90
46283;DHT22;32017;43.700;11.820;2023-08-06T04:02:55;12.50;99.90
46283;DHT22;32017;43.700;11.820;2023-08-06T04:05:15;12.50;99.90
46283;DHT22;32017;43.700;11.820;2023-08-06T04:07:35;12.50;99.90
46283;DHT22;32017;43.700;11.820;2023-08-06T04:09:58;12.60;99.90
46283;DHT22;32017;43.700;11.820;2023-08-06T04:12:18;12.70;99.90
46283;DHT22;32017;43.700;11.820;2023-08-06T04:14:40;12.70;99.90
46283;DHT22;32017;43.700;11.820;2023-08-06T04:17:00;12.60;99.90
46283;DHT22;32017;43.700;11.820;2023-08-06T04:19:20;12.50;99.90
46283;DHT22;32017;43.700;11.820;2023-08-06T04:21:39;12.50;99.90
46283;DHT22;32017;43.700;11.820;2023-08-06T04:23:59;12.70;99.90
46283;DHT22;32017;43.700;11.820;2023-08-06T04:26:19;12.80;99.90
46283;DHT22;32017;43.700;11.820;2023-08-06T04:28:39;12.70;99.90
46283;DHT22;32017;43.700;11.820;2023-08-06T04:30:59;12.50;99.90
46283;DHT22;32017;43.700;11.820;2023-08-06T04:33:20;12.50;99.90
46283;DHT22;32017;43.700;11.820;2023-08-06T04:35:40;12.50;99.90
46283;DHT22;32017;43.700;11.820;2023-08-06T04:38:00;12.70;99.90
46283;DHT22;32017;43.700;11.820;2023-08-06T04:40:20;12.60;99.90
46283;DHT22;32017;43.700;11.820;2023-08-06T04:42:39;12.60;99.90
46283;DHT22;32017;43.700;11.820;2023-08-06T04:45:01;12.60;99.90
46283;DHT22;32017;43.700;11.820;2023-08-06T04:47:21;12.60;99.90
46283;DHT22;32017;43.700;11.820;2023-08-06T04:49:41;12.70;99.90
46283;DHT22;32017;43.700;11.820;2023-08-06T04:52:01;12.70;99.90
46283;DHT22;32017;43.700;11.820;2023-08-06T04:54:21;12.80;99.90
46283;DHT22;32017;43.700;11.820;2023-08-06T04:56:41;12.80;99.90
46283;DHT22;32017;43.700;11.820;2023-08-06T04:59:01;13.00;99.90
46283;DHT22;32017;43.700;11.820;2023-08-06T05:01:21;12.90;99.90
46283;DHT22;32017;43.700;11.820;2023-08-06T05:03:41;12.90;99.90
46283;DHT22;32017;43.700;11.820;2023-08-06T05:06:01;13.00;99.90
46283;DHT22;32017;43.700;11.820;2023-08-06T05:08:21;13.00;99.90
46283;DHT22;32017;43.700;11.820;2023-08-06T05:10:43;13.00;99.90
46283;DHT22;32017;43.700;11.820;2023-08-06T05:13:03;13.00;99.90
46283;DHT22;32017;43.700;11.820;2023-08-06T05:15:23;13.00;99.90
46283;DHT22;32017;43.700;11.820;2023-08-06T05:17:45;13.10;99.90
46283;DHT22;32017;43.700;11.820;2023-08-06T05:20:05;13.10;99.90
46283;DHT22;32017;43.700;11.820;2023-08-06T05:22:25;13.00;99.90
46283;DHT22;32017;43.700;11.820;2023-08-06T05:24:45;12.90;99.90
46283;DHT22;32017;43.700;11.820;2023-08-06T05:27:06;12.70;99.90
46283;DHT22;32017;43.700;11.820;2023-08-06T05:29:25;12.80;99.90
46283;DHT22;32017;43.700;11.820;2023-08-06T05:31:47;12.90;99.90
46283;DHT22;32017;43.700;11.820;2023-08-06T05:34:07;13.10;99.90
46283;DHT22;32017;43.700;11.820;2023-08-06T05:36:27;13.10;99.90
46283;DHT22;32017;43.700;11.820;2023-08-06T05:38:49;13.20;99.90
46283;DHT22;32017;43.700;11.820;2023-08-06T05:41:09;13.30;99.90
46283;DHT22;32017;43.700;11.820;2023-08-06T05:43:29;13.40;99.90
46283;DHT22;32017;43.700;11.820;2023-08-06T05:45:50;13.40;99.90
46283;DHT22;32017;43.700;11.820;2023-08-06T05:48:10;13.40;99.90
46283;DHT22;32017;43.700;11.820;2023-08-06T05:50:30;13.40;99.90
46283;DHT22;32017;43.700;11.820;2023-08-06T05:52:49;13.50;99.90
46283;DHT22;32017;43.700;11.820;2023-08-06T05:55:09;13.70;99.90
46283;DHT22;32017;43.700;11.820;2023-08-06T05:57:29;13.70;99.90
46283;DHT22;32017;43.700;11.820;2023-08-06T05:59:49;13.70;99.90
46283;DHT22;32017;43.700;11.820;2023-08-06T06:02:08;13.80;99.90
46283;DHT22;32017;43.700;11.820;2023-08-06T06:04:28;13.90;99.90
46283;DHT22;32017;43.700;11.820;2023-08-06T06:06:49;14.00;99.90
46283;DHT22;32017;43.700;11.820;2023-08-06T06:09:09;13.90;99.90
46283;DHT22;32017;43.700;11.820;2023-08-06T06:11:28;13.80;99.90
46283;DHT22;32017;43.700;11.820;2023-08-06T06:13:52;13.90;99.90
46283;DHT22;32017;43.700;11.820;2023-08-06T06:16:12;14.00;99.90
46283;DHT22;32017;43.700;11.820;2023-08-06T06:18:32;14.10;99.90
46283;DHT22;32017;43.700;11.820;2023-08-06T06:20:51;14.10;99.90
46283;DHT22;32017;43.700;11.820;2023-08-06T06:23:11;14.00;99.90
46283;DHT22;32017;43.700;11.820;2023-08-06T06:25:31;14.00;99.90
46283;DHT22;32017;43.700;11.820;2023-08-06T06:27:52;14.20;99.90
46283;DHT22;32017;43.700;11.820;2023-08-06T06:30:11;14.10;99.90
46283;DHT22;32017;43.700;11.820;2023-08-06T06:32:32;14.30;99.90
46283;DHT22;32017;43.700;11.820;2023-08-06T06:34:51;14.30;99.90
46283;DHT22;32017;43.700;11.820;2023-08-06T06:37:11;14.30;99.90
46283;DHT22;32017;43.700;11.820;2023-08-06T06:39:31;14.40;99.90
46283;DHT22;32017;43.700;11.820;2023-08-06T06:41:51;14.40;99.90
46283;DHT22;32017;43.700;11.820;2023-08-06T06:44:11;14.40;99.90
46283;DHT22;32017;43.700;11.820;2023-08-06T06:46:31;14.40;99.90
46283;DHT22;32017;43.700;11.820;2023-08-06T06:48:51;14.50;99.90
46283;DHT22;32017;43.700;11.820;2023-08-06T06:51:11;14.60;99.90
46283;DHT22;32017;43.700;11.820;2023-08-06T06:53:30;14.60;99.90
46283;DHT22;32017;43.700;11.820;2023-08-06T06:55:50;14.60;99.90
46283;DHT22;32017;43.700;11.820;2023-08-06T06:58:10;14.80;99.90
46283;DHT22;32017;43.700;11.820;2023-08-06T07:00:29;15.40;99.90
46283;DHT22;32017;43.700;11.820;2023-08-06T07:02:49;15.50;99.90
46283;DHT22;32017;43.700;11.820;2023-08-06T07:05:09;15.90;99.90
46283;DHT22;32017;43.700;11.820;2023-08-06T07:07:30;16.00;99.90
46283;DHT22;32017;43.700;11.820;2023-08-06T07:09:50;16.20;99.90
46283;DHT22;32017;43.700;11.820;2023-08-06T07:12:09;16.30;99.90
46283;DHT22;32017;43.700;11.820;2023-08-06T07:14:30;16.40;99.90
46283;DHT22;32017;43.700;11.820;2023-08-06T07:16:50;16.70;99.90
46283;DHT22;32017;43.700;11.820;2023-08-06T07:19:10;16.90;99.90
46283;DHT22;32017;43.700;11.820;2023-08-06T07:21:30;17.30;99.90
46283;DHT22;32017;43.700;11.820;2023-08-06T07:23:50;17.30;99.90
46283;DHT22;32017;43.700;11.820;2023-08-06T07:26:10;17.30;99.90
46283;DHT22;32017;43.700;11.820;2023-08-06T07:28:30;17.30;99.90
46283;DHT22;32017;43.700;11.820;2023-08-06T07:30:50;17.50;99.90
46283;DHT22;32017;43.700;11.820;2023-08-06T07:33:10;18.00;99.90
46283;DHT22;32017;43.700;11.820;2023-08-06T07:35:30;18.10;99.90
46283;DHT22;32017;43.700;11.820;2023-08-06T07:37:50;18.40;99.90
46283;DHT22;32017;43.700;11.820;2023-08-06T07:40:10;18.60;99.90
46283;DHT22;32017;43.700;11.820;2023-08-06T07:42:30;18.80;99.90
46283;DHT22;32017;43.700;11.820;2023-08-06T07:44:55;19.00;99.90
46283;DHT22;32017;43.700;11.820;2023-08-06T07:47:15;19.50;99.90
46283;DHT22;32017;43.700;11.820;2023-08-06T07:49:36;19.60;99.90
46283;DHT22;32017;43.700;11.820;2023-08-06T07:51:55;19.90;99.90
46283;DHT22;32017;43.700;11.820;2023-08-06T07:54:15;20.30;99.90
46283;DHT22;32017;43.700;11.820;2023-08-06T07:56:35;20.20;99.90
46283;DHT22;32017;43.700;11.820;2023-08-06T07:58:56;20.30;99.90
46283;DHT22;32017;43.700;11.820;2023-08-06T08:01:16;20.40;99.90
46283;DHT22;32017;43.700;11.820;2023-08-06T08:03:36;20.30;99.90
46283;DHT22;32017;43.700;11.820;2023-08-06T08:05:57;20.50;99.90
46283;DHT22;32017;43.700;11.820;2023-08-06T08:08:19;20.60;99.90
46283;DHT22;32017;43.700;11.820;2023-08-06T08:10:39;20.90;99.90
46283;DHT22;32017;43.700;11.820;2023-08-06T08:13:02;20.60;99.90
46283;DHT22;32017;43.700;11.820;2023-08-06T08:15:24;20.70;99.90
46283;DHT22;32017;43.700;11.820;2023-08-06T08:17:45;20.80;99.90
46283;DHT22;32017;43.700;11.820;2023-08-06T08:20:07;21.30;99.90
46283;DHT22;32017;43.700;11.820;2023-08-06T08:22:27;21.50;99.90
46283;DHT22;32017;43.700;11.820;2023-08-06T08:24:47;22.20;99.90
46283;DHT22;32017;43.700;11.820;2023-08-06T08:27:06;22.20;99.90
46283;DHT22;32017;43.700;11.820;2023-08-06T08:29:27;22.40;99.90
46283;DHT22;32017;43.700;11.820;2023-08-06T08:31:47;22.70;99.90
46283;DHT22;32017;43.700;11.820;2023-08-06T08:34:09;22.60;99.90
46283;DHT22;32017;43.700;11.820;2023-08-06T08:36:29;22.80;99.90
46283;DHT22;32017;43.700;11.820;2023-08-06T08:38:49;23.30;99.90
46283;DHT22;32017;43.700;11.820;2023-08-06T08:41:13;23.10;99.90
46283;DHT22;32017;43.700;11.820;2023-08-06T08:43:33;23.30;99.90
46283;DHT22;32017;43.700;11.820;2023-08-06T08:45:54;23.10;99.90
46283;DHT22;32017;43.700;11.820;2023-08-06T08:48:21;22.80;99.90
46283;DHT22;32017;43.700;11.820;2023-08-06T08:50:42;23.10;99.90
46283;DHT22;32017;43.700;11.820;2023-08-06T08:53:03;23.30;99.90
46283;DHT22;32017;43.700;11.820;2023-08-06T08:55:22;23.50;99.90
46283;DHT22;32017;43.700;11.820;2023-08-06T08:57:43;23.80;99.90
46283;DHT22;32017;43.700;11.820;2023-08-06T09:00:03;24.10;99.90
46283;DHT22;32017;43.700;11.820;2023-08-06T09:02:26;24.10;99.90
46283;DHT22;32017;43.700;11.820;2023-08-06T09:04:48;24.10;99.90
46283;DHT22;32017;43.700;11.820;2023-08-06T09:07:10;24.20;99.90
46283;DHT22;32017;43.700;11.820;2023-08-06T09:09:34;24.30;99.90
46283;DHT22;32017;43.700;11.820;2023-08-06T09:12:01;24.50;99.90
46283;DHT22;32017;43.700;11.820;2023-08-06T09:14:22;24.70;99.90
46283;DHT22;32017;43.700;11.820;2023-08-06T09:16:42;24.70;99.90
46283;DHT22;32017;43.700;11.820;2023-08-06T09:19:09;24.80;99.90
46283;DHT22;32017;43.700;11.820;2023-08-06T09:21:29;25.00;99.90
46283;DHT22;32017;43.700;11.820;2023-08-06T09:23:50;25.20;99.90
46283;DHT22;32017;43.700;11.820;2023-08-06T09:26:12;25.00;99.90
46283;DHT22;32017;43.700;11.820;2023-08-06T09:28:37;25.20;99.90
46283;DHT22;32017;43.700;11.820;2023-08-06T09:31:02;25.30;99.90
46283;DHT22;32017;43.700;11.820;2023-08-06T09:33:22;25.20;98.80
46283;DHT22;32017;43.700;11.820;2023-08-06T09:35:43;25.70;99.40
46283;DHT22;32017;43.700;11.820;2023-08-06T09:38:09;25.80;97.40
46283;DHT22;32017;43.700;11.820;2023-08-06T09:40:31;25.90;97.80
46283;DHT22;32017;43.700;11.820;2023-08-06T09:42:51;26.10;96.70
46283;DHT22;32017;43.700;11.820;2023-08-06T09:45:12;26.20;95.90
46283;DHT22;32017;43.700;11.820;2023-08-06T09:47:33;26.60;98.30
46283;DHT22;32017;43.700;11.820;2023-08-06T09:49:53;26.90;96.40
46283;DHT22;32017;43.700;11.820;2023-08-06T09:52:13;26.60;95.30
46283;DHT22;32017;43.700;11.820;2023-08-06T09:54:37;26.10;96.20
46283;DHT22;32017;43.700;11.820;2023-08-06T09:56:58;26.00;95.80
46283;DHT22;32017;43.700;11.820;2023-08-06T09:59:18;26.00;96.50
46283;DHT22;32017;43.700;11.820;2023-08-06T10:01:39;26.40;97.10
46283;DHT22;32017;43.700;11.820;2023-08-06T10:04:00;26.90;95.90
46283;DHT22;32017;43.700;11.820;2023-08-06T10:06:26;27.20;95.40
46283;DHT22;32017;43.700;11.820;2023-08-06T10:08:48;27.40;94.10
46283;DHT22;32017;43.700;11.820;2023-08-06T10:11:08;27.80;95.30
46283;DHT22;32017;43.700;11.820;2023-08-06T10:13:28;27.70;94.50
46283;DHT22;32017;43.700;11.820;2023-08-06T10:15:49;27.70;93.70
46283;DHT22;32017;43.700;11.820;2023-08-06T10:18:11;27.30;93.30
46283;DHT22;32017;43.700;11.820;2023-08-06T10:20:34;27.10;93.80
46283;DHT22;32017;43.700;11.820;2023-08-06T10:23:04;27.00;94.00
46283;DHT22;32017;43.700;11.820;2023-08-06T10:25:25;26.80;93.60
46283;DHT22;32017;43.700;11.820;2023-08-06T10:30:30;26.00;94.70
46283;DHT22;32017;43.700;11.820;2023-08-06T10:32:53;25.90;94.40
46283;DHT22;32017;43.700;11.820;2023-08-06T10:37:52;25.20;94.30
46283;DHT22;32017;43.700;11.820;2023-08-06T10:40:21;25.10;94.80
46283;DHT22;32017;43.700;11.820;2023-08-06T10:42:41;24.90;94.90
46283;DHT22;32017;43.700;11.820;2023-08-06T10:45:19;24.60;94.90
46283;DHT22;32017;43.700;11.820;2023-08-06T10:47:39;24.20;95.80
46283;DHT22;32017;43.700;11.820;2023-08-06T10:50:03;24.30;95.50
46283;DHT22;32017;43.700;11.820;2023-08-06T10:52:23;24.80;95.60
46283;DHT22;32017;43.700;11.820;2023-08-06T10:54:43;25.00;94.20
46283;DHT22;32017;43.700;11.820;2023-08-06T10:57:09;25.50;94.80
46283;DHT22;32017;43.700;11.820;2023-08-06T10:59:29;25.90;93.70
46283;DHT22;32017;43.700;11.820;2023-08-06T11:01:49;25.80;93.70
46283;DHT22;32017;43.700;11.820;2023-08-06T11:04:09;25.50;94.20
46283;DHT22;32017;43.700;11.820;2023-08-06T11:06:35;25.30;94.40
46283;DHT22;32017;43.700;11.820;2023-08-06T11:08:55;25.60;93.90
46283;DHT22;32017;43.700;11.820;2023-08-06T11:11:16;25.70;93.60
46283;DHT22;32017;43.700;11.820;2023-08-06T11:13:36;25.50;93.70
46283;DHT22;32017;43.700;11.820;2023-08-06T11:15:57;25.20;94.10
46283;DHT22;32017;43.700;11.820;2023-08-06T11:18:17;24.90;94.80
46283;DHT22;32017;43.700;11.820;2023-08-06T11:20:37;25.20;94.30
46283;DHT22;32017;43.700;11.820;2023-08-06T11:22:58;25.30;94.00
46283;DHT22;32017;43.700;11.820;2023-08-06T11:25:20;25.60;94.60
46283;DHT22;32017;43.700;11.820;2023-08-06T11:27:41;25.70;93.40
46283;DHT22;32017;43.700;11.820;2023-08-06T11:30:01;25.90;94.50
46283;DHT22;32017;43.700;11.820;2023-08-06T11:32:21;26.40;94.40
46283;DHT22;32017;43.700;11.820;2023-08-06T11:34:41;26.70;93.40
46283;DHT22;32017;43.700;11.820;2023-08-06T11:37:03;26.30;92.70
46283;DHT22;32017;43.700;11.820;2023-08-06T11:39:25;25.70;93.00
46283;DHT22;32017;43.700;11.820;2023-08-06T11:41:45;25.70;93.30
46283;DHT22;32017;43.700;11.820;2023-08-06T11:44:04;25.80;93.40
46283;DHT22;32017;43.700;11.820;2023-08-06T11:46:25;26.40;92.80
46283;DHT22;32017;43.700;11.820;2023-08-06T11:48:56;26.50;92.70
46283;DHT22;32017;43.700;11.820;2023-08-06T11:51:16;27.00;92.90
46283;DHT22;32017;43.700;11.820;2023-08-06T11:53:35;27.30;91.70
46283;DHT22;32017;43.700;11.820;2023-08-06T11:55:55;27.30;90.90
46283;DHT22;32017;43.700;11.820;2023-08-06T11:58:17;27.50;93.30
46283;DHT22;32017;43.700;11.820;2023-08-06T12:00:37;27.60;90.80
46283;DHT22;32017;43.700;11.820;2023-08-06T12:02:57;27.90;92.60
46283;DHT22;32017;43.700;11.820;2023-08-06T12:05:18;28.00;91.50
46283;DHT22;32017;43.700;11.820;2023-08-06T12:07:42;28.00;91.10
46283;DHT22;32017;43.700;11.820;2023-08-06T12:10:02;27.90;92.20
46283;DHT22;32017;43.700;11.820;2023-08-06T12:12:23;28.10;91.30
46283;DHT22;32017;43.700;11.820;2023-08-06T12:14:42;28.40;90.30
46283;DHT22;32017;43.700;11.820;2023-08-06T12:17:02;28.20;90.30
46283;DHT22;32017;43.700;11.820;2023-08-06T12:19:22;28.30;90.60
46283;DHT22;32017;43.700;11.820;2023-08-06T12:21:43;28.20;89.90
46283;DHT22;32017;43.700;11.820;2023-08-06T12:24:04;28.20;88.50
46283;DHT22;32017;43.700;11.820;2023-08-06T12:26:24;28.30;86.50
46283;DHT22;32017;43.700;11.820;2023-08-06T12:28:43;28.10;90.60
46283;DHT22;32017;43.700;11.820;2023-08-06T12:31:04;28.20;90.60
46283;DHT22;32017;43.700;11.820;2023-08-06T12:33:24;28.10;89.00
46283;DHT22;32017;43.700;11.820;2023-08-06T12:35:43;28.30;90.90
46283;DHT22;32017;43.700;11.820;2023-08-06T12:38:03;28.80;88.90
46283;DHT22;32017;43.700;11.820;2023-08-06T12:40:25;29.00;87.10
46283;DHT22;32017;43.700;11.820;2023-08-06T12:42:57;29.20;86.90
46283;DHT22;32017;43.700;11.820;2023-08-06T12:45:19;29.30;91.00
46283;DHT22;32017;43.700;11.820;2023-08-06T12:47:41;29.80;84.40
46283;DHT22;32017;43.700;11.820;2023-08-06T12:50:00;29.40;80.60
46283;DHT22;32017;43.700;11.820;2023-08-06T12:52:20;29.30;80.40
46283;DHT22;32017;43.700;11.820;2023-08-06T12:54:40;29.40;82.00
46283;DHT22;32017;43.700;11.820;2023-08-06T12:57:00;29.60;82.10
46283;DHT22;32017;43.700;11.820;2023-08-06T12:59:20;29.70;78.60
46283;DHT22;32017;43.700;11.820;2023-08-06T13:01:41;29.50;79.60
46283;DHT22;32017;43.700;11.820;2023-08-06T13:04:01;29.40;80.30
46283;DHT22;32017;43.700;11.820;2023-08-06T13:06:40;29.40;84.00
46283;DHT22;32017;43.700;11.820;2023-08-06T13:09:01;29.20;82.60
46283;DHT22;32017;43.700;11.820;2023-08-06T13:11:21;29.40;80.50
46283;DHT22;32017;43.700;11.820;2023-08-06T13:13:41;29.90;80.00
46283;DHT22;32017;43.700;11.820;2023-08-06T13:16:01;30.70;82.10
46283;DHT22;32017;43.700;11.820;2023-08-06T13:18:21;31.30;77.10
46283;DHT22;32017;43.700;11.820;2023-08-06T13:20:41;31.30;76.50
46283;DHT22;32017;43.700;11.820;2023-08-06T13:23:01;31.10;76.40
46283;DHT22;32017;43.700;11.820;2023-08-06T13:25:21;30.80;76.80
46283;DHT22;32017;43.700;11.820;2023-08-06T13:27:41;30.60;77.90
46283;DHT22;32017;43.700;11.820;2023-08-06T13:30:01;30.50;76.10
46283;DHT22;32017;43.700;11.820;2023-08-06T13:32:22;30.10;77.70
46283;DHT22;32017;43.700;11.820;2023-08-06T13:34:42;30.30;77.90
46283;DHT22;32017;43.700;11.820;2023-08-06T13:37:02;30.40;75.90
46283;DHT22;32017;43.700;11.820;2023-08-06T13:39:22;30.80;75.80
46283;DHT22;32017;43.700;11.820;2023-08-06T13:41:41;30.50;76.70
46283;DHT22;32017;43.700;11.820;2023-08-06T13:44:02;30.70;76.30
46283;DHT22;32017;43.700;11.820;2023-08-06T13:46:22;30.90;77.30
46283;DHT22;32017;43.700;11.820;2023-08-06T13:48:43;30.90;77.40
46283;DHT22;32017;43.700;11.820;2023-08-06T13:51:03;30.10;73.80
46283;DHT22;32017;43.700;11.820;2023-08-06T13:53:23;29.70;75.00
46283;DHT22;32017;43.700;11.820;2023-08-06T13:55:49;30.00;79.40
46283;DHT22;32017;43.700;11.820;2023-08-06T13:58:09;30.60;79.30
46283;DHT22;32017;43.700;11.820;2023-08-06T14:00:29;31.00;75.00
46283;DHT22;32017;43.700;11.820;2023-08-06T14:02:49;30.70;76.50
46283;DHT22;32017;43.700;11.820;2023-08-06T14:05:10;30.70;75.10
46283;DHT22;32017;43.700;11.820;2023-08-06T14:07:30;30.80;74.50
46283;DHT22;32017;43.700;11.820;2023-08-06T14:09:50;29.70;76.50
46283;DHT22;32017;43.700;11.820;2023-08-06T14:12:10;29.50;78.20
46283;DHT22;32017;43.700;11.820;2023-08-06T14:14:29;29.70;77.80
46283;DHT22;32017;43.700;11.820;2023-08-06T14:16:49;30.00;77.60
46283;DHT22;32017;43.700;11.820;2023-08-06T14:19:09;30.50;76.10
46283;DHT22;32017;43.700;11.820;2023-08-06T14:21:29;30.10;75.40
46283;DHT22;32017;43.700;11.820;2023-08-06T14:23:49;29.80;75.90
46283;DHT22;32017;43.700;11.820;2023-08-06T14:26:09;30.20;78.90
46283;DHT22;32017;43.700;11.820;2023-08-06T14:28:30;30.00;76.40
46283;DHT22;32017;43.700;11.820;2023-08-06T14:30:50;29.30;76.00
46283;DHT22;32017;43.700;11.820;2023-08-06T14:33:10;29.30;78.20
46283;DHT22;32017;43.700;11.820;2023-08-06T14:35:47;29.60;79.80
46283;DHT22;32017;43.700;11.820;2023-08-06T14:38:07;29.40;80.10
46283;DHT22;32017;43.700;11.820;2023-08-06T14:40:26;29.40;78.60
46283;DHT22;32017;43.700;11.820;2023-08-06T14:42:52;29.50;79.30
46283;DHT22;32017;43.700;11.820;2023-08-06T14:45:13;29.60;77.60
46283;DHT22;32017;43.700;11.820;2023-08-06T14:47:33;29.60;80.50